Bf Esperanza — V2BR8 — position and weather

sailwx.info

Track history (hours):
 
Tides and Currents Weather Stations Pressure Air Temp Water Temp Dewpoint Dewpoint Depression Visibility Wind Speed Wind Dir Waves Ship Positions

Bf Esperanza

Last reported at 2014-Jul-31 23:31 UTC. Time now 2014-Jul-31 23:47 UTC.
Position N 36°32' W 001°56'.

Length 135 m; draft 6.9 m.

Type: Cargo ship. MMSI: 304907000.

Date/timePositionNaut miles runAvg speedWind from/ knotsBaromVisibWave heightAir tempDewpointWater temp
2014-Jul-31 23:31N 36°32' W 001°56'1414.8
2014-Jul-31 22:33N 36°22' W 002°09'1816.0
2014-Jul-31 21:27N 36°20' W 002°31'14216.0
2014-Jul-31 12:33N 35°58' W 005°25'  
2014-Jul-27 01:23N 34°38' W 006°54'1113.0
2014-Jul-27 00:33N 34°47' W 006°47'1412.8
2014-Jul-26 23:29N 34°59' W 006°38'8011.4
2014-Jul-26 16:30N 35°57' W 005°30'3 1.5
2014-Jul-26 14:30N 35°54' W 005°29'0 0.0
2014-Jul-26 13:30N 35°54' W 005°29'0 0.0
2014-Jul-26 12:24N 35°54' W 005°29'0 0.0
2014-Jul-25 16:31N 35°54' W 005°29'0 0.0
2014-Jul-25 15:30N 35°54' W 005°29'0 0.0
2014-Jul-25 14:33N 35°54' W 005°29'  
2014-Jul-23 10:19N 36°25' W 004°03'79 2.4
2014-Jul-22 02:11N 36°24' W 002°25'1113.1
2014-Jul-22 01:21N 36°26' W 002°12'2513.6
2014-Jul-21 23:32N 36°42' W 001°48'  
Track history (hours):
 
Tides and Currents Weather Stations Pressure Air Temp Water Temp Dewpoint Dewpoint Depression Visibility Wind Speed Wind Dir Waves Ship Positions

Bf Esperanza

Last reported at 2014-Jul-31 23:31 UTC. Time now 2014-Jul-31 23:47 UTC.
Position N 36°32' W 001°56'.

Length 135 m; draft 6.9 m.

Type: Cargo ship. MMSI: 304907000.

Date/timePositionNaut miles runAvg speedWind from/ knotsBaromVisibWave heightAir tempDewpointWater temp
2014-Jul-31 23:31N 36°32' W 001°56'1414.8
2014-Jul-31 22:33N 36°22' W 002°09'1816.0
2014-Jul-31 21:27N 36°20' W 002°31'14216.0
2014-Jul-31 12:33N 35°58' W 005°25'  
2014-Jul-27 01:23N 34°38' W 006°54'1113.0
2014-Jul-27 00:33N 34°47' W 006°47'1412.8
2014-Jul-26 23:29N 34°59' W 006°38'8011.4
2014-Jul-26 16:30N 35°57' W 005°30'3 1.5
2014-Jul-26 14:30N 35°54' W 005°29'0 0.0
2014-Jul-26 13:30N 35°54' W 005°29'0 0.0
2014-Jul-26 12:24N 35°54' W 005°29'0 0.0
2014-Jul-25 16:31N 35°54' W 005°29'0 0.0
2014-Jul-25 15:30N 35°54' W 005°29'0 0.0
2014-Jul-25 14:33N 35°54' W 005°29'  
2014-Jul-23 10:19N 36°25' W 004°03'79 2.4
2014-Jul-22 02:11N 36°24' W 002°25'1113.1
2014-Jul-22 01:21N 36°26' W 002°12'2513.6
2014-Jul-21 23:32N 36°42' W 001°48'  

Dump ship's entire track history